Time;durP1;ratioP1;P1;durP2;ratioP2;P2;SDS_P1;SDS_P2;PMS_P1;PMS_P2;Temp;Humidity;BMP_temperature;BMP_pressure;BME280_temperature;BME280_humidity;BME280_pressure;Samples;Min_cycle;Max_cycle;Signal;HPM_P1;HPM_P2
2021/06/24 00:00:46;;;;;;;14.57;11.75;;;20.50;99.90;;;;;;5060223;28;20258;-69
2021/06/24 00:03:12;;;;;;;18.40;12.95;;;20.50;99.90;;;;;;5078029;28;20023;-69
2021/06/24 00:05:39;;;;;;;16.98;14.40;;;20.50;99.90;;;;;;5077750;28;20021;-69
2021/06/24 00:08:06;;;;;;;21.25;16.50;;;20.40;99.90;;;;;;5077317;28;20036;-69
2021/06/24 00:10:31;;;;;;;23.02;17.45;;;20.20;99.90;;;;;;5092275;23;20047;-68
2021/06/24 00:12:57;;;;;;;27.45;20.17;;;20.00;99.90;;;;;;5096325;28;20028;-68
2021/06/24 00:15:22;;;;;;;25.17;19.05;;;19.70;99.90;;;;;;5096369;28;20036;-68
2021/06/24 00:17:48;;;;;;;28.35;21.42;;;19.50;99.90;;;;;;5078210;28;20027;-68
2021/06/24 00:20:14;;;;;;;24.20;20.30;;;19.40;99.90;;;;;;5078252;28;20032;-68
2021/06/24 00:22:40;;;;;;;26.05;21.02;;;19.30;99.90;;;;;;5096743;28;20032;-69
2021/06/24 00:25:06;;;;;;;30.55;22.65;;;19.10;99.90;;;;;;5096466;28;20062;-68
2021/06/24 00:27:32;;;;;;;26.60;21.27;;;19.10;99.90;;;;;;5095981;28;20450;-67
2021/06/24 00:29:57;;;;;;;25.67;20.25;;;19.00;99.90;;;;;;5077920;28;20162;-67
2021/06/24 00:32:23;;;;;;;25.38;20.95;;;19.00;99.90;;;;;;5095698;28;20125;-67
2021/06/24 00:34:49;;;;;;;27.80;23.27;;;19.00;99.90;;;;;;5095420;28;20028;-67
2021/06/24 00:37:14;;;;;;;28.98;21.58;;;19.00;99.90;;;;;;5096281;28;20062;-67
2021/06/24 00:39:40;;;;;;;25.92;22.17;;;19.00;99.90;;;;;;5077779;28;20032;-67
2021/06/24 00:42:07;;;;;;;27.25;21.05;;;19.00;99.90;;;;;;5077777;28;20119;-67
2021/06/24 00:44:32;;;;;;;23.60;20.38;;;19.00;99.90;;;;;;5077527;28;20024;-67
2021/06/24 00:46:58;;;;;;;25.92;21.55;;;19.00;99.90;;;;;;5096023;28;20487;-67
2021/06/24 00:49:24;;;;;;;24.52;21.35;;;19.00;99.90;;;;;;5096026;28;20544;-67
2021/06/24 00:51:49;;;;;;;25.98;22.00;;;19.00;99.90;;;;;;5078485;28;20024;-67
2021/06/24 00:54:15;;;;;;;26.05;20.85;;;19.10;99.90;;;;;;5096589;28;20048;-67
2021/06/24 00:56:40;;;;;;;27.20;19.75;;;19.10;99.90;;;;;;5077812;28;20464;-67
2021/06/24 00:59:06;;;;;;;24.27;19.02;;;19.30;99.90;;;;;;5095765;28;20087;-67
2021/06/24 01:01:33;;;;;;;23.17;20.02;;;19.60;99.90;;;;;;5095662;28;20024;-67
2021/06/24 01:03:59;;;;;;;22.50;20.15;;;19.60;99.90;;;;;;5095564;28;20027;-67
2021/06/24 01:06:25;;;;;;;24.10;19.45;;;19.50;99.90;;;;;;5095963;28;20012;-67
2021/06/24 01:08:51;;;;;;;24.92;20.75;;;19.40;99.90;;;;;;5095468;28;20043;-68
2021/06/24 01:11:18;;;;;;;22.80;18.65;;;19.30;99.90;;;;;;5077271;28;20034;-68
2021/06/24 01:13:46;;;;;;;21.58;19.23;;;19.40;99.90;;;;;;5077272;28;20028;-68
2021/06/24 01:16:13;;;;;;;24.40;16.27;;;19.30;99.90;;;;;;5095601;28;20099;-68
2021/06/24 01:18:39;;;;;;;15.18;12.77;;;19.20;99.90;;;;;;5095914;28;20465;-68
2021/06/24 01:21:04;;;;;;;12.77;9.52;;;19.20;99.90;;;;;;5095398;28;20039;-69
2021/06/24 01:23:42;;;;;;;11.55;9.50;;;19.20;99.90;;;;;;5095164;28;20024;-68
2021/06/24 01:26:08;;;;;;;13.35;9.75;;;19.10;99.90;;;;;;5094999;28;20028;-68
2021/06/24 01:28:33;;;;;;;;;;;19.10;99.90;;;;;;5095881;28;20109;-68
2021/06/24 01:30:59;;;;;;;7.95;6.90;;;19.00;99.90;;;;;;5094788;28;19949;-68
2021/06/24 01:33:25;;;;;;;7.57;6.22;;;19.00;99.90;;;;;;5094844;28;20020;-68
2021/06/24 01:35:58;;;;;;;5.55;4.85;;;18.90;99.90;;;;;;5076550;28;20032;-68
2021/06/24 01:38:24;;;;;;;4.95;4.03;;;18.80;99.90;;;;;;5094772;28;20039;-68
2021/06/24 01:40:49;;;;;;;;;;;18.70;99.90;;;;;;5095302;28;20120;-68
2021/06/24 01:43:15;;;;;;;5.57;3.13;;;18.70;99.90;;;;;;5095025;28;20336;-68
2021/06/24 01:45:49;;;;;;;2.60;2.40;;;18.60;99.90;;;;;;5094998;28;20060;-68
2021/06/24 01:48:15;;;;;;;3.10;2.67;;;18.60;99.90;;;;;;5076394;28;20050;-68
2021/06/24 01:50:41;;;;;;;3.63;2.78;;;18.50;99.90;;;;;;5094440;28;20456;-68
2021/06/24 01:53:07;;;;;;;3.33;2.40;;;18.60;99.90;;;;;;5094369;28;20028;-68
2021/06/24 01:55:34;;;;;;;2.80;2.40;;;18.60;99.90;;;;;;5094354;28;20020;-68
2021/06/24 01:58:01;;;;;;;3.75;2.20;;;18.60;99.90;;;;;;5094439;28;20361;-68
2021/06/24 02:00:27;;;;;;;2.65;2.42;;;18.60;99.90;;;;;;5094443;28;20024;-68
2021/06/24 02:02:53;;;;;;;3.55;2.30;;;18.60;99.90;;;;;;5094304;28;20557;-68
2021/06/24 02:05:19;;;;;;;3.47;2.13;;;18.50;99.90;;;;;;5094390;28;20036;-68
2021/06/24 02:07:44;;;;;;;3.53;2.60;;;18.50;99.90;;;;;;5094271;28;20024;-68
2021/06/24 02:10:11;;;;;;;3.53;2.42;;;18.50;99.90;;;;;;5075711;28;20066;-68
2021/06/24 02:12:37;;;;;;;3.65;2.72;;;18.50;99.90;;;;;;5094670;28;20020;-68
2021/06/24 02:15:05;;;;;;;3.35;2.97;;;18.50;99.90;;;;;;5094188;28;20088;-68
2021/06/24 02:17:31;;;;;;;3.35;2.90;;;18.50;99.90;;;;;;5094087;28;20059;-68
2021/06/24 02:19:56;;;;;;;4.90;2.90;;;18.40;99.90;;;;;;5094054;28;20028;-68
2021/06/24 02:22:22;;;;;;;3.97;3.22;;;18.40;99.90;;;;;;5094312;28;20028;-68
2021/06/24 02:24:48;;;;;;;5.10;3.17;;;18.40;99.90;;;;;;5094276;28;20024;-68
2021/06/24 02:27:13;;;;;;;5.28;2.88;;;18.40;99.90;;;;;;5075783;28;20024;-68
2021/06/24 02:29:39;;;;;;;5.38;3.00;;;18.30;99.90;;;;;;5093490;28;20096;-68
2021/06/24 02:32:05;;;;;;;4.68;3.40;;;18.30;99.90;;;;;;5093749;28;20473;-68
2021/06/24 02:34:30;;;;;;;3.85;2.97;;;18.20;99.90;;;;;;5094258;28;20023;-68
2021/06/24 02:36:57;;;;;;;3.92;2.92;;;18.20;99.90;;;;;;5094356;28;20473;-68
2021/06/24 02:39:22;;;;;;;4.22;3.13;;;18.20;99.90;;;;;;5076385;28;20024;-68
2021/06/24 02:41:48;;;;;;;6.00;3.45;;;18.20;99.90;;;;;;5093777;28;20107;-68
2021/06/24 02:44:13;;;;;;;4.20;2.70;;;18.20;99.90;;;;;;5093610;28;20028;-68
2021/06/24 02:46:39;;;;;;;4.10;2.60;;;18.20;99.90;;;;;;5093658;28;20059;-68
2021/06/24 02:49:05;;;;;;;3.50;2.50;;;18.10;99.90;;;;;;5093350;28;20056;-68
2021/06/24 02:51:30;;;;;;;3.08;2.17;;;18.10;99.90;;;;;;5093782;28;20480;-68
2021/06/24 02:53:56;;;;;;;3.47;3.00;;;18.10;99.90;;;;;;5093420;28;20028;-67
2021/06/24 02:56:23;;;;;;;4.10;2.40;;;18.10;99.90;;;;;;5074718;28;20028;-67
2021/06/24 02:58:49;;;;;;;3.08;2.63;;;18.10;99.90;;;;;;5093533;28;20049;-67
2021/06/24 03:01:15;;;;;;;3.60;2.30;;;18.10;99.90;;;;;;5093167;28;20480;-67
2021/06/24 03:03:41;;;;;;;4.57;2.13;;;18.10;99.90;;;;;;5093419;28;20030;-67
2021/06/24 03:06:07;;;;;;;3.55;2.33;;;18.10;99.90;;;;;;5093618;28;20395;-67
2021/06/24 03:08:33;;;;;;;3.00;2.58;;;18.10;99.90;;;;;;5093534;28;20020;-68
2021/06/24 03:10:59;;;;;;;3.70;2.05;;;18.10;99.90;;;;;;5093026;28;20138;-68
2021/06/24 03:13:25;;;;;;;2.55;1.90;;;18.20;99.90;;;;;;5093763;28;20464;-67
2021/06/24 03:15:50;;;;;;;3.05;2.20;;;18.20;99.90;;;;;;5093172;28;20380;-67
2021/06/24 03:18:16;;;;;;;2.40;2.00;;;18.10;99.90;;;;;;5093900;28;20476;-67
2021/06/24 03:20:42;;;;;;;2.97;2.20;;;18.20;99.90;;;;;;5093555;28;20043;-67
2021/06/24 03:23:08;;;;;;;2.90;1.58;;;18.20;99.90;;;;;;5075035;28;20038;-66
2021/06/24 03:25:33;;;;;;;3.13;2.10;;;18.10;99.90;;;;;;5075034;28;20048;-67
2021/06/24 03:27:59;;;;;;;3.30;1.88;;;18.00;99.90;;;;;;5093249;28;20449;-67
2021/06/24 03:30:25;;;;;;;2.10;1.70;;;18.10;99.90;;;;;;5074738;28;20028;-68
2021/06/24 03:32:50;;;;;;;2.95;1.45;;;18.10;99.90;;;;;;5092980;28;20028;-68
2021/06/24 03:35:17;;;;;;;1.52;1.42;;;18.10;99.90;;;;;;5074830;28;20035;-67
2021/06/24 03:37:43;;;;;;;2.38;1.77;;;18.10;99.90;;;;;;5093255;28;20024;-67
2021/06/24 03:40:15;;;;;;;2.00;1.60;;;18.10;99.90;;;;;;5094354;28;20111;-68
2021/06/24 03:42:40;;;;;;;1.70;1.60;;;18.20;99.90;;;;;;5094598;28;20055;-68
2021/06/24 03:45:07;;;;;;;2.33;1.40;;;18.30;99.90;;;;;;5092793;28;20129;-68
2021/06/24 03:47:33;;;;;;;2.50;1.40;;;18.30;99.90;;;;;;5092965;28;20135;-68
2021/06/24 03:49:58;;;;;;;1.75;1.17;;;18.20;99.90;;;;;;5074630;28;20119;-68
2021/06/24 03:52:24;;;;;;;2.45;1.20;;;17.90;99.90;;;;;;5092988;28;20028;-68
2021/06/24 03:54:49;;;;;;;1.48;1.00;;;17.80;99.90;;;;;;5074646;28;20383;-68
2021/06/24 03:57:15;;;;;;;1.50;1.27;;;17.80;99.90;;;;;;5092913;28;20027;-68
2021/06/24 03:59:40;;;;;;;1.75;0.80;;;18.00;99.90;;;;;;5092750;28;20392;-68
2021/06/24 04:02:06;;;;;;;1.33;1.10;;;18.00;99.90;;;;;;5092703;28;20476;-68
2021/06/24 04:04:32;;;;;;;1.35;0.95;;;18.10;99.90;;;;;;5074763;28;20024;-68
2021/06/24 04:06:57;;;;;;;1.23;1.00;;;18.20;99.90;;;;;;5092999;28;20124;-68
2021/06/24 04:09:23;;;;;;;4.18;1.42;;;18.00;99.90;;;;;;5094744;28;20444;-68
2021/06/24 04:11:49;;;;;;;1.70;1.17;;;18.00;99.90;;;;;;5096264;28;20511;-68
2021/06/24 04:14:15;;;;;;;1.75;1.00;;;17.90;99.90;;;;;;5078321;28;20020;-68
2021/06/24 04:16:40;;;;;;;1.73;1.20;;;17.80;99.90;;;;;;5096819;28;20020;-68
2021/06/24 04:19:06;;;;;;;4.03;1.20;;;17.80;99.90;;;;;;5096484;28;20465;-68
2021/06/24 04:21:31;;;;;;;1.30;1.00;;;17.90;99.90;;;;;;5096034;28;20107;-68
2021/06/24 04:23:57;;;;;;;1.48;1.10;;;17.90;99.90;;;;;;5095967;28;20020;-68
2021/06/24 04:26:23;;;;;;;2.60;1.20;;;18.10;99.90;;;;;;5096323;28;20065;-68
2021/06/24 04:28:49;;;;;;;1.33;1.00;;;17.90;99.90;;;;;;5077676;28;20028;-68
2021/06/24 04:31:15;;;;;;;;;;;17.80;99.90;;;;;;5096431;28;20024;-68
2021/06/24 04:33:40;;;;;;;1.33;1.10;;;17.80;99.90;;;;;;5077922;28;19908;-68
2021/06/24 04:36:07;;;;;;;1.58;0.70;;;17.80;99.90;;;;;;5077932;28;20407;-68
2021/06/24 04:38:32;;;;;;;1.05;0.80;;;17.70;99.90;;;;;;5096007;28;20043;-68
2021/06/24 04:40:58;;;;;;;1.30;0.90;;;17.70;99.90;;;;;;5095684;28;20066;-68
2021/06/24 04:43:25;;;;;;;4.55;1.10;;;17.60;99.90;;;;;;5095955;28;20123;-68
2021/06/24 04:45:50;;;;;;;0.98;0.82;;;17.50;99.90;;;;;;5095952;28;20354;-69
2021/06/24 04:48:16;;;;;;;1.02;0.93;;;17.50;99.90;;;;;;5095701;28;20069;-69
2021/06/24 04:50:41;;;;;;;0.93;0.82;;;17.30;99.90;;;;;;5095226;28;20089;-69
2021/06/24 04:53:08;;;;;;;0.98;0.75;;;17.30;99.90;;;;;;5077259;28;20027;-69
2021/06/24 04:55:40;;;;;;;2.15;0.80;;;17.30;99.90;;;;;;5095363;28;20053;-69
2021/06/24 04:58:09;;;;;;;1.00;0.88;;;17.30;99.90;;;;;;5095549;28;20016;-69
2021/06/24 05:00:36;;;;;;;1.00;0.80;;;17.40;99.90;;;;;;5095458;28;20062;-68
2021/06/24 05:03:02;;;;;;;0.80;0.80;;;17.40;99.90;;;;;;5095469;28;20069;-68
2021/06/24 05:05:28;;;;;;;3.80;0.90;;;17.40;99.90;;;;;;5095734;28;20024;-67
2021/06/24 05:07:54;;;;;;;1.30;1.00;;;17.40;99.90;;;;;;5095171;28;20024;-70
2021/06/24 05:10:21;;;;;;;1.88;1.02;;;17.40;99.90;;;;;;5094835;28;20693;-65
2021/06/24 05:12:47;;;;;;;2.35;0.93;;;17.40;99.90;;;;;;5095422;28;20024;-65
2021/06/24 05:15:13;;;;;;;2.92;1.00;;;17.40;99.90;;;;;;5095172;28;20453;-66
2021/06/24 05:17:39;;;;;;;;;;;17.40;99.90;;;;;;5095650;28;20058;-64
2021/06/24 05:20:07;;;;;;;4.32;1.38;;;17.30;99.90;;;;;;5076442;28;19908;-65
2021/06/24 05:22:34;;;;;;;1.83;1.00;;;17.30;99.90;;;;;;5095054;28;20131;-66
2021/06/24 05:25:00;;;;;;;1.58;1.00;;;17.20;99.90;;;;;;5094728;28;20050;-65
2021/06/24 05:27:25;;;;;;;2.85;1.38;;;17.20;99.90;;;;;;5076768;28;20028;-67
2021/06/24 05:29:51;;;;;;;1.65;1.17;;;17.20;99.90;;;;;;5094940;28;20070;-66
2021/06/24 05:32:17;;;;;;;1.38;1.25;;;17.10;99.90;;;;;;5094695;28;20027;-66
2021/06/24 05:34:43;;;;;;;1.95;1.40;;;17.10;99.90;;;;;;5094698;28;20062;-66
2021/06/24 05:37:08;;;;;;;1.83;1.30;;;17.10;99.90;;;;;;5094553;28;20019;-68
2021/06/24 05:39:34;;;;;;;1.75;0.90;;;17.10;99.90;;;;;;5094136;28;20039;-66
2021/06/24 05:42:00;;;;;;;1.83;1.30;;;17.10;99.90;;;;;;5094667;28;20473;-66
2021/06/24 05:44:27;;;;;;;1.77;1.40;;;17.10;99.90;;;;;;5093797;28;20141;-66
2021/06/24 05:46:56;;;;;;;2.15;1.10;;;17.10;99.90;;;;;;5094460;28;20358;-66
2021/06/24 05:49:22;;;;;;;1.73;1.30;;;17.20;99.90;;;;;;5076009;28;20384;-66
2021/06/24 05:51:48;;;;;;;2.20;1.30;;;17.40;99.90;;;;;;5092307;28;20022;-66
2021/06/24 05:54:13;;;;;;;3.60;1.65;;;17.60;99.90;;;;;;5075805;28;20030;-66
2021/06/24 05:56:41;;;;;;;3.88;1.35;;;17.80;99.90;;;;;;5095069;28;20461;-65
2021/06/24 05:59:06;;;;;;;3.65;1.33;;;17.90;99.90;;;;;;5075941;28;20031;-66
2021/06/24 06:01:32;;;;;;;4.18;1.30;;;18.00;99.90;;;;;;5075712;28;20396;-66
2021/06/24 06:03:58;;;;;;;2.63;1.52;;;18.10;99.90;;;;;;5093679;28;20058;-66
2021/06/24 06:06:23;;;;;;;2.30;1.13;;;18.10;99.90;;;;;;5093850;28;20021;-66
2021/06/24 06:08:49;;;;;;;5.97;1.50;;;18.20;99.90;;;;;;5093469;28;20028;-66
2021/06/24 06:11:14;;;;;;;2.38;1.58;;;18.40;99.90;;;;;;5094077;28;20032;-66
2021/06/24 06:13:40;;;;;;;3.83;1.73;;;18.70;99.90;;;;;;5093920;28;20020;-66
2021/06/24 06:16:06;;;;;;;3.78;1.45;;;19.00;99.90;;;;;;5093702;28;20077;-66
2021/06/24 06:18:32;;;;;;;2.17;1.45;;;19.00;99.90;;;;;;5093884;28;20032;-66
2021/06/24 06:20:59;;;;;;;3.30;1.40;;;18.90;99.90;;;;;;5093504;28;20033;-66
2021/06/24 06:23:27;;;;;;;2.55;1.25;;;19.00;99.90;;;;;;5075168;28;20042;-66
2021/06/24 06:25:53;;;;;;;2.38;1.50;;;19.10;99.90;;;;;;5093676;28;20019;-65
2021/06/24 06:28:21;;;;;;;2.58;1.52;;;19.10;99.90;;;;;;5094005;28;20078;-65
2021/06/24 06:30:48;;;;;;;2.80;1.92;;;19.30;99.90;;;;;;5074316;28;20024;-65
2021/06/24 06:33:18;;;;;;;2.85;1.77;;;19.30;99.90;;;;;;5093755;28;20024;-65
2021/06/24 06:35:44;;;;;;;2.00;1.63;;;19.30;99.90;;;;;;5094860;28;20107;-66
2021/06/24 06:38:10;;;;;;;;;;;19.20;99.90;;;;;;5076521;28;20388;-66
2021/06/24 06:40:36;;;;;;;3.80;2.50;;;19.20;99.90;;;;;;5095529;28;19904;-66
2021/06/24 06:43:02;;;;;;;5.07;2.63;;;19.30;99.90;;;;;;5096509;28;20528;-66
2021/06/24 06:45:29;;;;;;;;;;;19.30;99.90;;;;;;5094515;28;20028;-66
2021/06/24 06:47:55;;;;;;;3.80;3.22;;;19.20;99.90;;;;;;5093720;28;19954;-66
2021/06/24 06:50:21;;;;;;;3.55;2.72;;;19.30;99.90;;;;;;5093509;28;20491;-66
2021/06/24 06:52:47;;;;;;;4.03;3.10;;;19.50;99.90;;;;;;5075043;28;20167;-66
2021/06/24 06:55:13;;;;;;;7.18;3.70;;;19.60;99.90;;;;;;5075131;28;20055;-68
2021/06/24 06:57:39;;;;;;;5.68;3.38;;;19.80;99.90;;;;;;5093035;28;20059;-68
2021/06/24 07:00:07;;;;;;;6.07;3.08;;;20.20;99.90;;;;;;5093120;28;20028;-69
2021/06/24 07:02:33;;;;;;;5.57;2.83;;;20.40;99.90;;;;;;5093126;28;20028;-69
2021/06/24 07:04:59;;;;;;;4.75;3.47;;;20.70;99.90;;;;;;5093122;28;20548;-69
2021/06/24 07:07:25;;;;;;;10.15;4.45;;;20.80;99.90;;;;;;5074672;28;20028;-69
2021/06/24 07:09:50;;;;;;;7.03;5.35;;;21.00;99.90;;;;;;5074439;28;20064;-69
2021/06/24 07:12:16;;;;;;;5.75;4.40;;;21.20;99.90;;;;;;5074889;28;20031;-69
2021/06/24 07:14:42;;;;;;;4.38;3.55;;;21.30;99.90;;;;;;5092803;28;20099;-68
2021/06/24 07:17:07;;;;;;;8.68;5.88;;;21.40;99.90;;;;;;5093439;28;20077;-70
2021/06/24 07:19:33;;;;;;;6.70;5.95;;;21.40;99.90;;;;;;5092806;28;20465;-68
2021/06/24 07:21:59;;;;;;;9.18;6.65;;;21.30;99.90;;;;;;5092915;28;20059;-68
2021/06/24 07:24:24;;;;;;;7.78;6.97;;;21.30;99.90;;;;;;5092970;28;20111;-68
2021/06/24 07:26:50;;;;;;;9.20;7.45;;;21.20;99.90;;;;;;5092947;28;20029;-68
2021/06/24 07:29:16;;;;;;;11.45;8.52;;;21.30;99.90;;;;;;5092911;28;20035;-69
2021/06/24 07:31:41;;;;;;;10.25;9.07;;;21.60;99.90;;;;;;5092967;28;20388;-69
2021/06/24 07:34:07;;;;;;;10.95;9.85;;;21.70;99.90;;;;;;5092835;28;20031;-69
2021/06/24 07:36:33;;;;;;;9.98;8.50;;;21.80;99.90;;;;;;5092621;28;20028;-68
2021/06/24 07:38:59;;;;;;;;;;;21.90;99.90;;;;;;5093038;28;20020;-67
2021/06/24 07:41:24;;;;;;;9.77;7.93;;;22.20;99.90;;;;;;5093048;28;20029;-68
2021/06/24 07:43:52;;;;;;;10.63;7.68;;;22.50;99.90;;;;;;5096318;28;20020;-69
2021/06/24 07:46:18;;;;;;;9.20;8.15;;;22.70;99.90;;;;;;5096964;28;20032;-69
2021/06/24 07:48:44;;;;;;;10.48;7.85;;;23.30;99.90;;;;;;5096470;28;20514;-69
2021/06/24 07:51:09;;;;;;;;;;;24.30;99.90;;;;;;5097204;28;20036;-69
2021/06/24 07:53:41;;;;;;;12.45;9.15;;;24.40;99.90;;;;;;5096949;28;19904;-69
2021/06/24 07:56:08;;;;;;;10.13;8.75;;;24.20;99.90;;;;;;5096354;28;20390;-69
2021/06/24 07:58:33;;;;;;;11.43;8.65;;;24.10;99.90;;;;;;5096905;28;20020;-69
2021/06/24 08:00:59;;;;;;;;;;;23.80;99.90;;;;;;5096692;28;20032;-69
2021/06/24 08:03:25;;;;;;;13.00;9.57;;;23.50;99.90;;;;;;5096460;28;19959;-68
2021/06/24 08:05:50;;;;;;;;;;;23.20;99.90;;;;;;5096495;28;20020;-68
2021/06/24 08:08:16;;;;;;;18.33;15.45;;;23.00;99.90;;;;;;5096093;28;19904;-68
2021/06/24 08:10:41;;;;;;;;;;;23.10;99.90;;;;;;5096282;28;20081;-68
2021/06/24 08:13:07;;;;;;;10.82;9.43;;;23.10;99.90;;;;;;5096242;28;19908;-68
2021/06/24 08:15:32;;;;;;;;;;;23.10;99.90;;;;;;5096712;28;20455;-68
2021/06/24 08:17:58;;;;;;;14.43;10.40;;;23.30;99.90;;;;;;5096185;28;19904;-68
2021/06/24 08:20:23;;;;;;;;;;;23.50;99.90;;;;;;5096833;28;20461;-67
2021/06/24 08:22:49;;;;;;;14.30;11.30;;;23.70;99.90;;;;;;5096565;28;19904;-68
2021/06/24 08:25:15;;;;;;;;;;;24.10;99.90;;;;;;5096911;28;20028;-68
2021/06/24 08:27:40;;;;;;;11.40;9.38;;;24.20;99.90;;;;;;5095689;28;19904;-68
2021/06/24 08:30:08;;;;;;;;;;;24.40;99.90;;;;;;5096062;28;20115;-68
2021/06/24 08:32:34;;;;;;;11.52;9.77;;;24.20;99.90;;;;;;5095769;28;19904;-68
2021/06/24 08:35:00;;;;;;;11.15;10.05;;;24.20;99.90;;;;;;5095194;28;20024;-69
2021/06/24 08:37:26;;;;;;;;;;;24.00;99.90;;;;;;5096021;28;20023;-68
2021/06/24 08:39:52;;;;;;;11.48;10.05;;;24.00;99.90;;;;;;5095466;28;19903;-68
2021/06/24 08:42:17;;;;;;;;;;;24.50;99.90;;;;;;5096210;28;20357;-67
2021/06/24 08:44:46;;;;;;;11.00;9.38;;;25.60;99.90;;;;;;5095495;28;19904;-68
2021/06/24 08:47:14;;;;;;;11.27;10.07;;;27.50;99.90;;;;;;5095101;28;20035;-68
2021/06/24 08:49:40;;;;;;;10.70;9.02;;;29.10;98.40;;;;;;5094937;28;20074;-68
2021/06/24 08:52:08;;;;;;;10.27;9.25;;;29.70;96.90;;;;;;5095441;28;20497;-67
2021/06/24 08:54:34;;;;;;;11.25;9.23;;;29.30;96.00;;;;;;5094774;28;20024;-68
2021/06/24 08:57:00;;;;;;;9.70;8.70;;;28.60;96.90;;;;;;5076670;28;20484;-68
2021/06/24 08:59:25;;;;;;;9.07;8.13;;;28.50;96.70;;;;;;5077027;28;20465;-68
2021/06/24 09:01:56;;;;;;;8.90;8.00;;;28.30;97.00;;;;;;5095091;28;20036;-68
2021/06/24 09:04:30;;;;;;;8.52;7.43;;;28.20;96.60;;;;;;5094921;28;20025;-68
2021/06/24 09:07:10;;;;;;;9.32;8.27;;;28.20;97.20;;;;;;5095236;28;20024;-67
2021/06/24 09:09:37;;;;;;;9.98;9.07;;;28.50;97.00;;;;;;5094504;28;20062;-67
2021/06/24 09:12:08;;;;;;;9.68;8.68;;;28.30;96.20;;;;;;5094737;28;20032;-68
2021/06/24 09:14:45;;;;;;;10.18;8.15;;;27.80;97.20;;;;;;5094746;28;20031;-68
2021/06/24 09:17:13;;;;;;;9.18;8.32;;;28.10;96.30;;;;;;5094929;28;20024;-68
2021/06/24 09:19:43;;;;;;;9.65;8.07;;;27.90;96.60;;;;;;5094842;28;20062;-68
2021/06/24 09:22:12;;;;;;;8.88;8.07;;;27.90;96.70;;;;;;5094572;28;20027;-68
2021/06/24 09:24:44;;;;;;;12.15;8.73;;;28.40;96.00;;;;;;5094536;28;20024;-68
2021/06/24 09:27:19;;;;;;;9.70;8.30;;;28.30;96.10;;;;;;5094587;28;20016;-68
2021/06/24 09:29:50;;;;;;;10.70;8.70;;;27.80;96.60;;;;;;5094507;28;20039;-68
2021/06/24 09:32:33;;;;;;;10.02;8.02;;;27.10;97.10;;;;;;5094273;28;20031;-68
2021/06/24 09:35:01;;;;;;;10.93;8.82;;;26.60;98.00;;;;;;5094314;28;20020;-67
2021/06/24 09:37:27;;;;;;;11.70;9.27;;;26.00;98.20;;;;;;5094177;28;20044;-68
2021/06/24 09:39:55;;;;;;;10.30;8.70;;;25.30;99.60;;;;;;5093968;28;20063;-68
2021/06/24 09:42:21;;;;;;;12.45;9.50;;;24.90;99.90;;;;;;5094120;28;20453;-68
2021/06/24 09:44:48;;;;;;;11.95;9.48;;;25.00;99.90;;;;;;5094589;28;20028;-68
2021/06/24 09:47:16;;;;;;;22.23;14.57;;;24.80;99.90;;;;;;5094185;28;20028;-68
2021/06/24 09:49:42;;;;;;;22.65;15.98;;;25.20;99.90;;;;;;5093989;28;20118;-69
2021/06/24 09:52:09;;;;;;;13.95;11.75;;;26.30;99.90;;;;;;5093904;28;20024;-69
2021/06/24 09:54:38;;;;;;;10.05;7.70;;;27.40;98.60;;;;;;5093864;28;20391;-69
2021/06/24 09:57:06;;;;;;;8.43;7.63;;;29.50;95.70;;;;;;5094155;28;20112;-67
2021/06/24 09:59:38;;;;;;;8.45;7.15;;;31.40;92.50;;;;;;5093745;28;20028;-67
2021/06/24 10:02:09;;;;;;;7.00;6.40;;;32.80;90.30;;;;;;5093781;28;20043;-68
2021/06/24 10:04:38;;;;;;;6.88;6.28;;;34.10;84.50;;;;;;5093610;28;20032;-68
2021/06/24 10:07:07;;;;;;;6.93;6.32;;;34.00;82.20;;;;;;5092903;28;20117;-68
2021/06/24 10:09:33;;;;;;;6.40;5.70;;;32.90;82.00;;;;;;5093630;28;20028;-68
2021/06/24 10:12:00;;;;;;;6.43;4.78;;;32.50;81.30;;;;;;5093616;28;20027;-68
2021/06/24 10:14:27;;;;;;;5.75;5.18;;;33.10;80.80;;;;;;5075371;28;20020;-68
2021/06/24 10:16:58;;;;;;;7.20;5.28;;;34.00;78.10;;;;;;5094076;28;20103;-68
2021/06/24 10:19:32;;;;;;;6.68;6.07;;;35.20;75.80;;;;;;5075058;28;20032;-68
2021/06/24 10:22:10;;;;;;;6.05;5.55;;;35.60;72.70;;;;;;5093729;28;20024;-67
2021/06/24 10:24:45;;;;;;;6.55;5.95;;;34.40;75.10;;;;;;5093799;28;20016;-67
2021/06/24 10:27:11;;;;;;;6.32;5.72;;;33.10;75.80;;;;;;5093477;28;20128;-68
2021/06/24 10:29:46;;;;;;;6.00;5.40;;;31.60;79.40;;;;;;5093286;28;20488;-68
2021/06/24 10:32:32;;;;;;;7.40;6.77;;;30.30;81.20;;;;;;5075391;28;20115;-68
2021/06/24 10:35:03;;;;;;;8.18;7.47;;;28.80;86.50;;;;;;5093584;28;20044;-67
2021/06/24 10:37:30;;;;;;;9.05;7.25;;;27.90;90.50;;;;;;5093613;28;20028;-68
2021/06/24 10:39:59;;;;;;;7.32;6.63;;;27.20;91.70;;;;;;5074536;28;20073;-68
2021/06/24 10:42:32;;;;;;;6.55;5.88;;;26.80;91.80;;;;;;5075146;28;20088;-68
2021/06/24 10:45:01;;;;;;;8.85;6.72;;;26.30;93.70;;;;;;5093924;28;20020;-68
2021/06/24 10:47:32;;;;;;;8.18;7.05;;;25.90;95.10;;;;;;5095535;28;20020;-70
2021/06/24 10:50:26;;;;;;;7.88;7.00;;;25.70;95.30;;;;;;5077282;28;20024;-69
2021/06/24 10:53:15;;;;;;;9.80;7.00;;;25.60;95.70;;;;;;5077353;28;20025;-70
2021/06/24 10:55:46;;;;;;;7.60;6.70;;;25.30;96.30;;;;;;5057729;28;20039;-70
2021/06/24 10:58:17;;;;;;;7.35;6.65;;;25.20;96.90;;;;;;5076800;28;20046;-70
2021/06/24 11:00:45;;;;;;;7.57;6.72;;;25.20;96.50;;;;;;5076827;28;20020;-70
2021/06/24 11:03:13;;;;;;;8.77;7.43;;;25.20;97.20;;;;;;5079118;28;20457;-70
2021/06/24 11:05:39;;;;;;;7.05;6.32;;;25.20;97.80;;;;;;5077995;28;20389;-70
2021/06/24 11:08:13;;;;;;;7.28;6.35;;;26.00;96.40;;;;;;5095605;28;20028;-70
2021/06/24 11:10:59;;;;;;;6.88;6.00;;;26.20;95.90;;;;;;5095464;28;20028;-70
2021/06/24 11:13:48;;;;;;;7.90;5.90;;;25.90;96.30;;;;;;5095771;28;20554;-70
2021/06/24 11:16:13;;;;;;;7.53;6.57;;;25.70;96.40;;;;;;5077308;28;20038;-70
2021/06/24 11:18:45;;;;;;;;;;;25.50;96.10;;;;;;5096302;28;20016;-65
2021/06/24 11:21:22;;;;;;;8.48;6.93;;;25.40;97.00;;;;;;5096776;28;19951;-66
2021/06/24 11:23:58;;;;;;;6.95;6.30;;;25.20;97.70;;;;;;5096825;28;20115;-66
2021/06/24 11:26:24;;;;;;;8.32;6.45;;;25.00;98.20;;;;;;5097064;28;20020;-66
2021/06/24 11:28:58;;;;;;;7.22;6.55;;;24.80;98.40;;;;;;5096746;28;20082;-67
2021/06/24 11:31:36;;;;;;;7.40;6.70;;;24.70;98.90;;;;;;5097343;28;20047;-66
2021/06/24 11:34:13;;;;;;;7.75;6.57;;;24.40;99.00;;;;;;5096586;28;20035;-65
2021/06/24 11:36:50;;;;;;;7.95;6.75;;;24.30;98.80;;;;;;5096679;28;20083;-66
2021/06/24 11:39:27;;;;;;;8.30;5.97;;;24.20;99.50;;;;;;5096382;28;20388;-67
2021/06/24 11:41:55;;;;;;;7.97;6.20;;;24.30;98.60;;;;;;5097029;28;20024;-67
2021/06/24 11:44:32;;;;;;;5.70;4.72;;;24.40;98.60;;;;;;5097294;28;20035;-68
2021/06/24 11:47:06;;;;;;;6.05;5.30;;;24.50;98.00;;;;;;5097235;28;20020;-66
2021/06/24 12:04:14;;;;;;;4.95;4.40;;;24.20;98.20;;;;;;5095920;28;20127;-66
2021/06/24 12:06:57;;;;;;;6.85;4.32;;;24.10;98.00;;;;;;5096151;28;20052;-67
2021/06/24 12:09:38;;;;;;;5.90;4.07;;;24.00;98.50;;;;;;5096030;28;20441;-68
2021/06/24 12:12:06;;;;;;;6.07;4.50;;;23.90;99.90;;;;;;5077671;28;20472;-67
2021/06/24 12:14:34;;;;;;;6.60;5.00;;;23.70;99.90;;;;;;5096095;28;20020;-65
2021/06/24 12:17:08;;;;;;;8.80;4.40;;;23.50;99.90;;;;;;5095809;28;20419;-66
2021/06/24 12:19:49;;;;;;;9.80;3.90;;;23.00;99.90;;;;;;5095882;28;20063;-66
2021/06/24 12:22:21;;;;;;;14.30;4.97;;;22.50;99.90;;;;;;5096105;28;20032;-65
2021/06/24 12:24:47;;;;;;;7.63;4.13;;;21.90;99.90;;;;;;5096110;28;20337;-65
2021/06/24 12:27:32;;;;;;;5.68;3.08;;;21.20;99.90;;;;;;5096453;28;20020;-64
2021/06/24 12:30:02;;;;;;;7.13;3.92;;;20.50;99.90;;;;;;5094658;28;20028;-65
2021/06/24 12:32:28;;;;;;;9.70;4.00;;;20.00;99.90;;;;;;5095505;28;20096;-65
2021/06/24 12:34:56;;;;;;;7.28;4.00;;;19.80;99.90;;;;;;5096017;28;20035;-66
2021/06/24 12:37:43;;;;;;;7.45;3.40;;;19.60;99.90;;;;;;5096198;28;20031;-65
2021/06/24 12:40:19;;;;;;;6.57;3.33;;;19.40;99.90;;;;;;5095795;28;20091;-65
2021/06/24 12:42:47;;;;;;;6.80;3.63;;;19.20;99.90;;;;;;5096581;28;20510;-65
2021/06/24 12:45:15;;;;;;;5.50;3.55;;;19.20;99.90;;;;;;5096101;28;20024;-66
2021/06/24 12:47:44;;;;;;;4.90;3.92;;;19.40;99.90;;;;;;5096072;28;20046;-68
2021/06/24 12:50:14;;;;;;;5.20;3.15;;;19.50;99.90;;;;;;5095761;28;20027;-65
2021/06/24 12:52:52;;;;;;;2.65;2.45;;;19.60;99.90;;;;;;5095709;28;20499;-66
2021/06/24 12:55:38;;;;;;;3.95;3.55;;;19.70;99.90;;;;;;5095874;28;20024;-66
2021/06/24 12:58:12;;;;;;;4.28;2.88;;;20.10;99.90;;;;;;5095931;28;20016;-66
2021/06/24 13:00:39;;;;;;;5.28;3.15;;;20.10;99.90;;;;;;5095676;28;20388;-67
2021/06/24 13:03:06;;;;;;;5.70;3.72;;;20.10;99.90;;;;;;5095808;28;20020;-67
2021/06/24 13:05:34;;;;;;;;;;;20.10;99.90;;;;;;5095782;28;20099;-66